Time;durP1;ratioP1;P1;durP2;ratioP2;P2;SDS_P1;SDS_P2;PMS_P1;PMS_P2;Temp;Humidity;BMP_temperature;BMP_pressure;BME280_temperature;BME280_humidity;BME280_pressure;Samples;Min_cycle;Max_cycle;Signal;HPM_P1;HPM_P2
2021/07/03 00:00:30;;;;;;;;;;;;;;;13.04;91.96;96182.38;1057875;28;19908;-51
2021/07/03 00:01:00;;;;;;;;;;;;;;;13.05;91.76;96189.25;1057619;28;19987;-49
2021/07/03 00:01:30;;;;;;;;;;;;;;;13.02;91.99;96184.41;1057458;28;19960;-48
2021/07/03 00:02:01;;;;;;;;;;;;;;;13.04;91.78;96184.19;1057323;28;19931;-51
2021/07/03 00:02:31;;;;;;;;;;;;;;;13.03;91.66;96182.59;1057565;28;19911;-49
2021/07/03 00:03:01;;;;;;;;;;;;;;;13.02;91.53;96181.75;1053048;28;19951;-50
2021/07/03 00:03:32;;;;;;;;;;;;;;;13.05;91.13;96172.59;1057535;28;20292;-48
2021/07/03 00:04:02;;;;;;;;;;;;;;;13.06;90.87;96179.53;1057285;28;20364;-48
2021/07/03 00:04:32;;;;;;;;;;;;;;;13.07;90.66;96183.75;1057226;28;19904;-51
2021/07/03 00:05:04;;;;;;;;;;;;;;;13.05;90.60;96178.69;1057802;28;19907;-49
2021/07/03 00:05:34;;;;;;;;;;;;;;;13.03;90.80;96178.09;1057207;28;19929;-49
2021/07/03 00:06:04;;;;;;;;;;;;;;;13.03;90.83;96175.47;1057353;28;19930;-50
2021/07/03 00:06:34;;;;;;;;;;;;;;;13.02;90.91;96184.41;1057378;28;19985;-48
2021/07/03 00:07:05;;;;;;;;;;;;;;;13.00;91.17;96180.31;1057233;28;19908;-51
2021/07/03 00:07:35;;;;;;;;;;;;;;;12.98;90.99;96176.09;1057884;28;19939;-50
2021/07/03 00:08:05;;;;;;;;;;;;;;;12.97;91.04;96176.28;1057542;28;19907;-52
2021/07/03 00:08:36;;;;;;;;;;;;;;;12.95;91.09;96173.84;1057600;28;19903;-50
2021/07/03 00:09:06;;;;;;;;;;;;;;;12.95;91.41;96179.16;1057664;28;19908;-48
2021/07/03 00:09:36;;;;;;;;;;;;;;;12.94;91.53;96171.44;1057627;28;19938;-51
2021/07/03 00:10:07;;;;;;;;;;;;;;;12.94;91.73;96176.72;1057572;28;19908;-48
2021/07/03 00:10:37;;;;;;;;;;;;;;;12.91;91.87;96171.84;1057493;28;19957;-50
2021/07/03 00:11:08;;;;;;;;;;;;;;;12.88;92.04;96173.06;1057297;28;19908;-47
2021/07/03 00:11:38;;;;;;;;;;;;;;;12.88;91.98;96169.63;1057429;28;19919;-51
2021/07/03 00:12:09;;;;;;;;;;;;;;;12.87;92.38;96170.63;1057284;28;19908;-47
2021/07/03 00:12:39;;;;;;;;;;;;;;;12.85;92.45;96177.97;1057337;28;19922;-49
2021/07/03 00:13:09;;;;;;;;;;;;;;;12.82;92.58;96173.09;1057400;28;19985;-48
2021/07/03 00:13:40;;;;;;;;;;;;;;;12.85;92.88;96170.03;1057699;28;19934;-52
2021/07/03 00:14:10;;;;;;;;;;;;;;;12.79;93.18;96169.81;1057553;28;19961;-51
2021/07/03 00:14:40;;;;;;;;;;;;;;;12.91;93.20;96169.19;1057615;28;19915;-50
2021/07/03 00:15:12;;;;;;;;;;;;;;;12.88;91.81;96166.97;1057860;28;20371;-49
2021/07/03 00:15:42;;;;;;;;;;;;;;;12.87;91.36;96171.44;1057770;27;20359;-48
2021/07/03 00:16:13;;;;;;;;;;;;;;;12.75;92.19;96170.44;1057706;28;20372;-49
2021/07/03 00:16:43;;;;;;;;;;;;;;;12.80;92.19;96163.53;1057698;28;19915;-48
2021/07/03 00:17:13;;;;;;;;;;;;;;;12.82;91.96;96167.81;1057674;28;19908;-50
2021/07/03 00:17:43;;;;;;;;;;;;;;;12.86;92.46;96164.53;1057566;28;19908;-48
2021/07/03 00:18:14;;;;;;;;;;;;;;;12.85;91.40;96170.84;1057689;28;19908;-49
2021/07/03 00:18:44;;;;;;;;;;;;;;;12.83;91.09;96162.31;1057593;28;20053;-50
2021/07/03 00:19:14;;;;;;;;;;;;;;;12.83;91.27;96172.06;1057684;28;20328;-48
2021/07/03 00:19:45;;;;;;;;;;;;;;;12.92;91.66;96162.88;1057809;28;20383;-48
2021/07/03 00:20:15;;;;;;;;;;;;;;;12.87;91.80;96165.34;1057467;28;19911;-50
2021/07/03 00:20:45;;;;;;;;;;;;;;;12.83;92.08;96158.84;1057512;28;19908;-49
2021/07/03 00:21:16;;;;;;;;;;;;;;;12.89;92.08;96163.28;1053074;28;19926;-49
2021/07/03 00:21:46;;;;;;;;;;;;;;;12.88;91.26;96166.97;1053264;28;19915;-48
2021/07/03 00:22:16;;;;;;;;;;;;;;;12.86;91.31;96161.06;1057542;28;20406;-48
2021/07/03 00:22:47;;;;;;;;;;;;;;;12.80;91.82;96160.88;1057377;28;19954;-51
2021/07/03 00:23:17;;;;;;;;;;;;;;;12.75;92.45;96163.34;1057937;28;19907;-49
2021/07/03 00:23:47;;;;;;;;;;;;;;;12.81;92.90;96169.63;1057893;28;19908;-51
2021/07/03 00:24:18;;;;;;;;;;;;;;;12.90;92.93;96164.94;1057587;28;19940;-50
2021/07/03 00:24:48;;;;;;;;;;;;;;;12.94;92.21;96171.44;1057589;28;19996;-50
2021/07/03 00:25:18;;;;;;;;;;;;;;;12.96;91.87;96170.19;1057786;28;19908;-49
2021/07/03 00:25:49;;;;;;;;;;;;;;;13.06;92.26;96168.94;1057715;28;19908;-48
2021/07/03 00:26:19;;;;;;;;;;;;;;;13.07;91.69;96162.63;1057700;28;19915;-48
2021/07/03 00:26:49;;;;;;;;;;;;;;;13.05;90.72;96165.47;1057595;28;19911;-48
2021/07/03 00:27:20;;;;;;;;;;;;;;;13.00;90.89;96162.66;1065976;27;19903;-51
2021/07/03 00:27:50;;;;;;;;;;;;;;;12.97;90.97;96168.38;1065925;27;19971;-48
2021/07/03 00:28:20;;;;;;;;;;;;;;;12.97;91.08;96168.38;1066098;27;20424;-51
2021/07/03 00:28:51;;;;;;;;;;;;;;;12.95;91.21;96165.09;1065851;27;19918;-52
2021/07/03 00:29:21;;;;;;;;;;;;;;;12.91;91.07;96167.34;1057426;28;19908;-52
2021/07/03 00:29:51;;;;;;;;;;;;;;;12.89;91.59;96168.56;1057636;28;20376;-52
2021/07/03 00:30:22;;;;;;;;;;;;;;;12.88;91.52;96166.97;1057772;28;20268;-51
2021/07/03 00:30:52;;;;;;;;;;;;;;;12.87;91.89;96163.50;1057651;28;19911;-52
2021/07/03 00:31:22;;;;;;;;;;;;;;;12.85;91.98;96165.56;1057633;28;19912;-52
2021/07/03 00:31:53;;;;;;;;;;;;;;;12.85;91.71;96159.47;1057650;28;19918;-52
2021/07/03 00:32:23;;;;;;;;;;;;;;;12.79;91.99;96163.75;1065957;27;19911;-50
2021/07/03 00:32:54;;;;;;;;;;;;;;;12.78;92.44;96167.41;1061606;27;19929;-52
2021/07/03 00:33:24;;;;;;;;;;;;;;;12.79;92.46;96163.75;1057472;28;19908;-49
2021/07/03 00:33:54;;;;;;;;;;;;;;;12.77;92.53;96169.22;1057305;28;20332;-51
2021/07/03 00:34:25;;;;;;;;;;;;;;;12.77;92.79;96166.59;1053106;28;19984;-49
2021/07/03 00:34:55;;;;;;;;;;;;;;;12.74;92.80;96161.72;1057596;28;19953;-51
2021/07/03 00:35:25;;;;;;;;;;;;;;;12.73;92.78;96160.09;1057636;28;19951;-49
2021/07/03 00:35:56;;;;;;;;;;;;;;;12.73;93.08;96161.94;1057754;28;19912;-50
2021/07/03 00:36:26;;;;;;;;;;;;;;;12.71;93.21;96172.72;1057841;28;20403;-51
2021/07/03 00:36:56;;;;;;;;;;;;;;;12.68;93.40;96165.19;1057660;28;19908;-51
2021/07/03 00:37:27;;;;;;;;;;;;;;;12.67;94.00;96160.91;1057761;28;19930;-50
2021/07/03 00:37:57;;;;;;;;;;;;;;;12.64;94.30;96163.97;1057707;28;19908;-52
2021/07/03 00:38:27;;;;;;;;;;;;;;;12.63;94.56;96162.34;1057288;28;19904;-50
2021/07/03 00:38:58;;;;;;;;;;;;;;;12.60;94.81;96162.75;1057455;28;19911;-51
2021/07/03 00:39:28;;;;;;;;;;;;;;;12.59;95.15;96164.59;1057478;28;19915;-50
2021/07/03 00:39:58;;;;;;;;;;;;;;;12.52;95.21;96163.78;1057446;28;19946;-48
2021/07/03 00:40:29;;;;;;;;;;;;;;;12.49;95.66;96166.03;1057791;28;20106;-52
2021/07/03 00:40:59;;;;;;;;;;;;;;;12.47;95.83;96163.63;1057671;28;19908;-49
2021/07/03 00:41:29;;;;;;;;;;;;;;;12.49;96.27;96166.03;1057647;28;19908;-51
2021/07/03 00:42:00;;;;;;;;;;;;;;;12.48;96.28;96167.88;1057700;28;19908;-48
2021/07/03 00:42:30;;;;;;;;;;;;;;;12.47;96.53;96165.44;1057803;28;19912;-56
2021/07/03 00:43:00;;;;;;;;;;;;;;;12.47;96.74;96168.09;1057729;28;19957;-49
2021/07/03 00:43:31;;;;;;;;;;;;;;;12.43;96.85;96173.78;1057625;28;19907;-49
2021/07/03 00:44:01;;;;;;;;;;;;;;;12.46;96.74;96172.53;1057653;28;19908;-48
2021/07/03 00:44:32;;;;;;;;;;;;;;;12.45;96.79;96168.31;1057546;28;19908;-50
2021/07/03 00:45:02;;;;;;;;;;;;;;;12.46;96.84;96163.81;1057590;28;19912;-49
2021/07/03 00:45:33;;;;;;;;;;;;;;;12.43;96.86;96165.88;1057650;28;20409;-49
2021/07/03 00:46:03;;;;;;;;;;;;;;;12.42;96.82;96166.88;1057773;28;19904;-50
2021/07/03 00:46:34;;;;;;;;;;;;;;;12.41;96.88;96167.88;1057699;28;19908;-49
2021/07/03 00:47:04;;;;;;;;;;;;;;;12.41;97.21;96167.88;1057649;28;19915;-52
2021/07/03 00:47:35;;;;;;;;;;;;;;;12.36;97.45;96177.41;1057592;28;19914;-50
2021/07/03 00:48:05;;;;;;;;;;;;;;;12.38;97.53;96170.94;1057766;28;19908;-49
2021/07/03 00:48:36;;;;;;;;;;;;;;;12.35;97.56;96166.06;1057749;28;19998;-47
2021/07/03 00:49:06;;;;;;;;;;;;;;;12.31;98.00;96167.47;1057605;28;20339;-47
2021/07/03 00:49:36;;;;;;;;;;;;;;;12.32;97.83;96168.31;1057944;28;19908;-49
2021/07/03 00:50:09;;;;;;;;;;;;;;;12.27;98.19;96166.28;1057810;28;20271;-51
2021/07/03 00:50:40;;;;;;;;;;;;;;;12.29;98.24;96166.06;1057756;28;20356;-51
2021/07/03 00:51:10;;;;;;;;;;;;;;;12.27;98.17;96168.94;1057673;28;19911;-50
2021/07/03 00:51:40;;;;;;;;;;;;;;;12.27;98.28;96161.00;1057689;28;19915;-49
2021/07/03 00:52:11;;;;;;;;;;;;;;;12.25;98.36;96169.13;1057751;28;19908;-48
2021/07/03 00:52:42;;;;;;;;;;;;;;;12.26;98.21;96168.09;1057576;28;20000;-49
2021/07/03 00:53:14;;;;;;;;;;;;;;;12.26;98.22;96159.38;1057530;28;20060;-48
2021/07/03 00:53:45;;;;;;;;;;;;;;;12.25;98.28;96169.13;1057375;28;20257;-48
2021/07/03 00:54:15;;;;;;;;;;;;;;;12.26;98.07;96165.44;1057185;28;19908;-48
2021/07/03 00:54:46;;;;;;;;;;;;;;;12.25;98.13;96168.28;1057379;28;19914;-52
2021/07/03 00:55:17;;;;;;;;;;;;;;;12.25;98.08;96168.28;1057306;28;19904;-52
2021/07/03 00:55:51;;;;;;;;;;;;;;;12.22;98.18;96168.72;1057281;28;19919;-48
2021/07/03 00:56:21;;;;;;;;;;;;;;;12.18;98.24;96164.88;1052825;28;19915;-49
2021/07/03 00:57:03;;;;;;;;;;;;;;;12.19;98.46;96167.31;1053705;28;19967;-49
2021/07/03 00:57:34;;;;;;;;;;;;;;;12.22;98.38;96168.72;1057401;28;19912;-49
2021/07/03 00:58:04;;;;;;;;;;;;;;;12.27;98.04;96161.81;1057409;28;19972;-50
2021/07/03 00:58:34;;;;;;;;;;;;;;;12.27;97.85;96155.72;1057903;28;19904;-49
2021/07/03 00:59:05;;;;;;;;;;;;;;;12.27;97.73;96155.72;1057732;28;20348;-48
2021/07/03 00:59:36;;;;;;;;;;;;;;;12.43;97.55;96159.75;1057732;28;20044;-49
2021/07/03 01:00:06;;;;;;;;;;;;;;;12.44;96.81;96154.25;1057606;28;19916;-47
2021/07/03 01:00:37;;;;;;;;;;;;;;;12.48;96.41;96153.84;1057576;28;19908;-51
2021/07/03 01:01:07;;;;;;;;;;;;;;;12.46;96.20;96151.41;1057731;28;20268;-50
2021/07/03 01:01:37;;;;;;;;;;;;;;;12.50;96.25;96154.47;1057647;28;19908;-48
2021/07/03 01:02:08;;;;;;;;;;;;;;;12.57;95.88;96155.25;1057681;28;19904;-49
2021/07/03 01:02:38;;;;;;;;;;;;;;;12.49;96.59;96152.84;1057808;28;20013;-51
2021/07/03 01:03:09;;;;;;;;;;;;;;;12.58;96.68;96152.41;1057645;28;20017;-51
2021/07/03 01:03:39;;;;;;;;;;;;;;;12.62;96.55;96147.53;1057654;28;19908;-49
2021/07/03 01:04:09;;;;;;;;;;;;;;;12.52;96.10;96152.44;1057588;28;19919;-52
2021/07/03 01:04:40;;;;;;;;;;;;;;;12.52;96.39;96149.78;1057439;28;19949;-48
2021/07/03 01:05:10;;;;;;;;;;;;;;;12.63;96.70;96154.44;1057310;28;20255;-51
2021/07/03 01:05:40;;;;;;;;;;;;;;;12.59;96.34;96153.22;1057289;28;19907;-48
2021/07/03 01:06:11;;;;;;;;;;;;;;;12.50;96.70;96149.19;1057405;28;19953;-51
2021/07/03 01:06:41;;;;;;;;;;;;;;;12.60;96.69;96149.56;1057320;28;19908;-49
2021/07/03 01:07:11;;;;;;;;;;;;;;;12.58;95.70;96154.25;1057175;28;19908;-49
2021/07/03 01:07:42;;;;;;;;;;;;;;;12.55;95.76;96149.38;1057252;28;19941;-51
2021/07/03 01:08:12;;;;;;;;;;;;;;;12.60;96.07;96146.91;1057405;28;20352;-51
2021/07/03 01:08:42;;;;;;;;;;;;;;;12.58;95.95;96152.41;1057254;28;19912;-48
2021/07/03 01:09:13;;;;;;;;;;;;;;;12.62;95.79;96144.91;1057563;28;19908;-49
2021/07/03 01:09:43;;;;;;;;;;;;;;;12.61;96.13;96152.00;1057905;28;19915;-48
2021/07/03 01:10:23;;;;;;;;;;;;;;;12.59;95.61;96143.47;1057750;28;19922;-49
2021/07/03 01:10:54;;;;;;;;;;;;;;;12.62;95.94;96144.91;1057605;28;19915;-48
2021/07/03 01:11:27;;;;;;;;;;;;;;;12.58;95.73;96149.75;1057748;28;19908;-47
2021/07/03 01:11:57;;;;;;;;;;;;;;;12.50;95.61;96147.34;1057863;28;19908;-51
2021/07/03 01:12:28;;;;;;;;;;;;;;;12.44;96.03;96140.25;1057597;28;19907;-50
2021/07/03 01:12:58;;;;;;;;;;;;;;;12.51;96.48;96140.22;1057437;28;19907;-53
2021/07/03 01:13:29;;;;;;;;;;;;;;;12.48;96.18;96136.19;1057794;28;19957;-50
2021/07/03 01:14:01;;;;;;;;;;;;;;;12.40;95.87;96142.50;1057553;28;19955;-51
2021/07/03 01:14:32;;;;;;;;;;;;;;;12.39;96.75;96138.25;1057382;28;19914;-49
2021/07/03 01:15:02;;;;;;;;;;;;;;;12.40;97.15;96146.97;1057540;28;19908;-49
2021/07/03 01:15:35;;;;;;;;;;;;;;;12.48;96.65;96140.66;1057588;28;19908;-49
2021/07/03 01:16:05;;;;;;;;;;;;;;;12.55;96.30;96142.25;1057640;28;19943;-49
2021/07/03 01:16:36;;;;;;;;;;;;;;;12.57;95.80;96139.41;1057738;28;20385;-49
2021/07/03 01:17:06;;;;;;;;;;;;;;;12.64;95.99;96148.13;1057624;28;19907;-50
2021/07/03 01:17:36;;;;;;;;;;;;;;;12.66;95.54;96140.81;1057626;28;19998;-52
2021/07/03 01:18:07;;;;;;;;;;;;;;;12.70;95.30;96139.38;1057520;28;19907;-53
2021/07/03 01:18:37;;;;;;;;;;;;;;;12.69;95.15;96142.22;1057759;28;19908;-50
2021/07/03 01:19:07;;;;;;;;;;;;;;;12.67;95.07;96139.78;1057588;28;19912;-48
2021/07/03 01:19:38;;;;;;;;;;;;;;;12.71;94.78;96145.50;1057827;28;19911;-49
2021/07/03 01:20:08;;;;;;;;;;;;;;;12.58;94.50;96139.19;1057560;28;19908;-47
2021/07/03 01:20:39;;;;;;;;;;;;;;;12.58;95.37;96143.69;1057442;28;19941;-49
2021/07/03 01:22:50;;;;;;;;;;;;;;;12.46;94.93;96137.41;1057766;28;19907;-51
2021/07/03 01:23:21;;;;;;;;;;;;;;;12.51;94.92;96141.06;1057132;28;19950;-52
2021/07/03 01:23:51;;;;;;;;;;;;;;;12.51;94.30;96145.50;1057570;28;19908;-49
2021/07/03 01:24:23;;;;;;;;;;;;;;;12.43;94.52;96146.56;1057409;28;19907;-48
2021/07/03 01:24:53;;;;;;;;;;;;;;;12.42;94.98;96143.09;1057892;28;19908;-48
2021/07/03 01:25:25;;;;;;;;;;;;;;;12.42;94.91;96140.47;1057614;28;20273;-48
2021/07/03 01:25:56;;;;;;;;;;;;;;;12.47;95.19;96144.31;1057602;28;19908;-52
2021/07/03 01:26:26;;;;;;;;;;;;;;;12.38;95.15;96141.09;1057882;28;19998;-48
2021/07/03 01:26:56;;;;;;;;;;;;;;;12.33;95.71;96141.69;1057692;28;19908;-49
2021/07/03 01:27:27;;;;;;;;;;;;;;;12.37;96.19;96139.44;1057474;28;19907;-48
2021/07/03 01:28:01;;;;;;;;;;;;;;;12.36;96.05;96141.28;1057709;28;19907;-48
2021/07/03 01:28:31;;;;;;;;;;;;;;;12.34;96.14;96138.03;1057654;28;19994;-48
2021/07/03 01:29:02;;;;;;;;;;;;;;;12.29;96.30;96137.03;1057375;28;19908;-48
2021/07/03 01:29:32;;;;;;;;;;;;;;;12.36;96.38;96140.47;1057276;28;19907;-48
2021/07/03 01:30:03;;;;;;;;;;;;;;;12.47;96.11;96139.03;1057223;28;19915;-48
2021/07/03 01:30:33;;;;;;;;;;;;;;;12.52;95.68;96139.22;1061561;27;19956;-51
2021/07/03 01:31:04;;;;;;;;;;;;;;;12.57;95.63;96142.88;1065977;27;19907;-48
2021/07/03 01:31:34;;;;;;;;;;;;;;;12.51;94.89;96141.06;1061499;28;20348;-49
2021/07/03 01:32:05;;;;;;;;;;;;;;;12.52;94.70;96137.38;1061601;28;20032;-48
2021/07/03 01:32:35;;;;;;;;;;;;;;;12.46;95.23;96137.41;1057352;28;19908;-51
2021/07/03 01:33:05;;;;;;;;;;;;;;;12.51;95.46;96141.06;1057356;28;20339;-51
2021/07/03 01:33:36;;;;;;;;;;;;;;;12.55;95.15;96133.53;1057571;28;19912;-50
2021/07/03 01:34:06;;;;;;;;;;;;;;;12.50;94.71;96128.06;1057592;28;19904;-51
2021/07/03 01:34:36;;;;;;;;;;;;;;;12.44;94.80;96140.25;1057497;28;20318;-48
2021/07/03 01:35:07;;;;;;;;;;;;;;;12.37;95.21;96134.97;1057567;28;20010;-48
2021/07/03 01:35:38;;;;;;;;;;;;;;;12.39;95.26;96134.75;1057593;28;19911;-48
2021/07/03 01:36:08;;;;;;;;;;;;;;;12.42;95.75;96135.19;1065749;27;19899;-49
2021/07/03 01:36:38;;;;;;;;;;;;;;;12.43;96.09;96136.81;1065601;27;19965;-48
2021/07/03 01:37:09;;;;;;;;;;;;;;;12.53;95.52;96140.84;1065628;27;19961;-46
2021/07/03 01:37:39;;;;;;;;;;;;;;;12.49;95.19;96137.00;1065480;27;19911;-47
2021/07/03 01:38:09;;;;;;;;;;;;;;;12.38;95.38;96136.59;1057637;28;20309;-48
2021/07/03 01:38:40;;;;;;;;;;;;;;;12.35;95.81;96138.84;1057143;28;19918;-52
2021/07/03 01:39:10;;;;;;;;;;;;;;;12.36;96.04;96133.38;1057242;28;19941;-49
2021/07/03 01:39:40;;;;;;;;;;;;;;;12.33;96.05;96131.16;1055571;28;19937;-50
2021/07/03 01:40:11;;;;;;;;;;;;;;;12.34;96.33;96134.59;1048934;28;19920;-48
2021/07/03 01:40:41;;;;;;;;;;;;;;;12.31;96.31;96135.00;1049319;28;19913;-48
2021/07/03 01:41:12;;;;;;;;;;;;;;;12.33;95.91;96133.78;1050056;28;19920;-48
2021/07/03 01:41:42;;;;;;;;;;;;;;;12.29;96.16;96135.19;1054917;28;19952;-48
2021/07/03 01:42:12;;;;;;;;;;;;;;;12.25;96.44;96136.63;1057650;28;19919;-48
2021/07/03 01:42:43;;;;;;;;;;;;;;;12.26;96.42;96135.63;1058132;28;19918;-48
2021/07/03 01:43:23;;;;;;;;;;;;;;;12.23;96.67;96139.47;1057940;28;19953;-47
2021/07/03 01:43:53;;;;;;;;;;;;;;;12.18;96.71;96135.84;1058048;28;19912;-47
2021/07/03 01:44:32;;;;;;;;;;;;;;;12.13;97.13;96138.25;1055064;28;19912;-51
2021/07/03 01:45:03;;;;;;;;;;;;;;;12.05;97.53;96137.44;1058115;28;20307;-47
2021/07/03 01:45:33;;;;;;;;;;;;;;;12.05;97.64;96140.09;1057983;28;19998;-51
2021/07/03 01:46:03;;;;;;;;;;;;;;;12.09;97.92;96140.50;1054021;28;19912;-49
2021/07/03 01:46:34;;;;;;;;;;;;;;;12.06;97.73;96139.06;1053700;28;19913;-51
2021/07/03 01:47:04;;;;;;;;;;;;;;;12.04;97.35;96135.00;1049380;28;19936;-50
2021/07/03 01:47:40;;;;;;;;;;;;;;;12.04;97.81;96132.38;1049691;28;20254;-48
2021/07/03 01:48:11;;;;;;;;;;;;;;;12.10;97.81;96136.88;1050731;28;19913;-51
2021/07/03 01:48:41;;;;;;;;;;;;;;;12.10;97.38;96128.94;1053784;28;19912;-53
2021/07/03 01:49:11;;;;;;;;;;;;;;;12.11;97.50;96127.09;1054009;28;19938;-48
2021/07/03 01:49:42;;;;;;;;;;;;;;;12.17;97.68;96128.94;1054073;28;19912;-49
2021/07/03 01:50:12;;;;;;;;;;;;;;;12.21;97.00;96130.94;1053744;28;20367;-51
2021/07/03 01:50:43;;;;;;;;;;;;;;;12.25;97.28;96126.06;1053857;28;19919;-48
2021/07/03 01:51:13;;;;;;;;;;;;;;;12.20;96.96;96131.97;1053916;28;19912;-50
2021/07/03 01:51:43;;;;;;;;;;;;;;;12.25;97.00;96126.88;1053674;28;19939;-50
2021/07/03 01:52:17;;;;;;;;;;;;;;;12.35;96.56;96123.00;1054033;28;19912;-51
2021/07/03 01:52:49;;;;;;;;;;;;;;;12.28;96.83;96123.00;1054125;28;19912;-48
2021/07/03 01:53:19;;;;;;;;;;;;;;;12.31;96.73;96122.59;1054019;28;20311;-48
2021/07/03 01:53:50;;;;;;;;;;;;;;;12.42;96.37;96127.25;1054268;28;19901;-47
2021/07/03 01:54:20;;;;;;;;;;;;;;;12.45;96.20;96120.75;1054001;28;19904;-47
2021/07/03 01:54:50;;;;;;;;;;;;;;;12.37;95.39;96124.41;1054200;28;19908;-49
2021/07/03 01:55:21;;;;;;;;;;;;;;;12.33;95.72;96132.94;1054134;28;20279;-50
2021/07/03 01:55:51;;;;;;;;;;;;;;;12.30;95.90;96128.91;1054315;28;20391;-47
2021/07/03 01:56:21;;;;;;;;;;;;;;;12.26;95.88;96125.84;1054126;28;20337;-50
2021/07/03 01:57:01;;;;;;;;;;;;;;;12.20;96.05;96126.69;1054076;28;19905;-50
2021/07/03 01:57:31;;;;;;;;;;;;;;;12.16;96.41;96128.13;1053979;28;19904;-48
2021/07/03 01:58:01;;;;;;;;;;;;;;;12.13;96.78;96133.81;1062319;27;19903;-49
2021/07/03 01:58:31;;;;;;;;;;;;;;;12.15;96.39;96128.34;1057994;28;19904;-49
2021/07/03 01:59:02;;;;;;;;;;;;;;;12.08;96.89;96131.75;1058070;28;19900;-49
2021/07/03 01:59:32;;;;;;;;;;;;;;;12.06;96.82;96135.63;1057761;28;19942;-48
2021/07/03 02:00:06;;;;;;;;;;;;;;;12.08;96.89;96142.31;1051853;28;19907;-49
2021/07/03 02:00:37;;;;;;;;;;;;;;;12.14;96.23;96131.97;1066332;27;19911;-49
2021/07/03 02:01:07;;;;;;;;;;;;;;;12.10;96.30;96128.94;1066428;27;19939;-50
2021/07/03 02:01:37;;;;;;;;;;;;;;;12.19;96.60;96133.00;1066515;27;20046;-49
2021/07/03 02:02:08;;;;;;;;;;;;;;;12.15;95.83;96134.41;1066638;27;19903;-52
2021/07/03 02:02:38;;;;;;;;;;;;;;;12.19;96.41;96137.44;1053685;28;19908;-49
2021/07/03 02:03:08;;;;;;;;;;;;;;;12.21;95.62;96135.44;1053834;28;19912;-52
2021/07/03 02:03:39;;;;;;;;;;;;;;;12.22;96.16;96137.88;1053823;28;20258;-50
2021/07/03 02:04:09;;;;;;;;;;;;;;;12.16;96.01;96132.56;1053808;28;20429;-50
2021/07/03 02:04:40;;;;;;;;;;;;;;;12.11;96.28;96135.03;1058001;28;19953;-49
2021/07/03 02:05:10;;;;;;;;;;;;;;;12.07;96.60;96126.69;1058366;28;19904;-49
2021/07/03 02:05:41;;;;;;;;;;;;;;;12.04;96.59;96137.66;1058217;28;20280;-52
2021/07/03 02:06:11;;;;;;;;;;;;;;;12.00;96.61;96133.81;1058316;28;20267;-47
2021/07/03 02:06:41;;;;;;;;;;;;;;;11.99;96.68;96135.63;1058267;27;19911;-49
2021/07/03 02:07:12;;;;;;;;;;;;;;;11.93;96.69;96133.78;1058136;28;19904;-51
2021/07/03 02:07:42;;;;;;;;;;;;;;;11.95;97.51;96136.22;1058266;28;19904;-50
2021/07/03 02:08:12;;;;;;;;;;;;;;;11.93;97.38;96133.78;1057870;28;19900;-48
2021/07/03 02:08:43;;;;;;;;;;;;;;;11.96;97.64;96129.94;1057874;28;19904;-50
2021/07/03 02:09:14;;;;;;;;;;;;;;;11.98;97.39;96131.38;1058004;28;19975;-50
2021/07/03 02:09:44;;;;;;;;;;;;;;;11.98;96.77;96127.91;1062237;27;20002;-52
2021/07/03 02:10:14;;;;;;;;;;;;;;;11.99;96.15;96132.19;1066441;27;20344;-52
2021/07/03 02:10:45;;;;;;;;;;;;;;;12.07;96.18;96124.88;1066474;27;19903;-50
2021/07/03 02:11:15;;;;;;;;;;;;;;;12.01;96.30;96130.97;1066570;27;19903;-48
2021/07/03 02:11:45;;;;;;;;;;;;;;;12.01;96.67;96133.63;1058306;28;19908;-48
2021/07/03 02:12:16;;;;;;;;;;;;;;;11.98;96.53;96134.03;1058401;28;19904;-48
2021/07/03 02:12:46;;;;;;;;;;;;;;;11.93;96.79;96133.78;1058264;28;19911;-48
2021/07/03 02:13:16;;;;;;;;;;;;;;;11.94;96.83;96130.16;1058261;28;19908;-47
2021/07/03 02:13:46;;;;;;;;;;;;;;;11.94;96.55;96135.44;1058209;28;19908;-48
2021/07/03 02:14:17;;;;;;;;;;;;;;;11.91;96.82;96130.53;1058073;28;19915;-49
2021/07/03 02:14:47;;;;;;;;;;;;;;;11.87;97.06;96131.94;1058231;28;19914;-49
2021/07/03 02:15:17;;;;;;;;;;;;;;;11.88;96.96;96136.22;1058324;28;20063;-49
2021/07/03 02:15:48;;;;;;;;;;;;;;;11.86;97.11;96125.06;1058213;28;19904;-50
2021/07/03 02:16:18;;;;;;;;;;;;;;;11.85;96.91;96126.06;1058113;28;19907;-52
2021/07/03 02:16:49;;;;;;;;;;;;;;;11.84;97.08;96125.25;1058082;28;19907;-47
2021/07/03 02:17:19;;;;;;;;;;;;;;;12.00;97.76;96133.81;1057703;28;19955;-51
2021/07/03 02:17:50;;;;;;;;;;;;;;;11.95;96.93;96126.50;1057841;28;20372;-48
2021/07/03 02:18:20;;;;;;;;;;;;;;;11.93;97.40;96127.72;1057923;28;19904;-48
2021/07/03 02:18:50;;;;;;;;;;;;;;;11.91;96.94;96127.88;1057932;28;19914;-51
2021/07/03 02:19:21;;;;;;;;;;;;;;;11.89;97.63;96124.66;1058125;28;19908;-48
2021/07/03 02:19:51;;;;;;;;;;;;;;;12.04;97.61;96133.19;1058110;27;19904;-48
2021/07/03 02:20:21;;;;;;;;;;;;;;;12.17;96.54;96126.28;1058306;27;19952;-50
2021/07/03 02:20:52;;;;;;;;;;;;;;;12.10;95.70;96128.94;1058172;27;19967;-49
2021/07/03 02:21:22;;;;;;;;;;;;;;;12.12;95.89;96120.81;1058052;28;19904;-49
2021/07/03 02:21:52;;;;;;;;;;;;;;;12.05;95.92;96128.72;1058046;28;19915;-48
2021/07/03 02:22:22;;;;;;;;;;;;;;;11.99;96.40;96122.44;1058093;28;19940;-49
2021/07/03 02:22:53;;;;;;;;;;;;;;;11.97;96.47;96135.03;1057948;28;19908;-51
2021/07/03 02:23:23;;;;;;;;;;;;;;;11.93;96.61;96133.78;1057858;28;19908;-51
2021/07/03 02:23:54;;;;;;;;;;;;;;;11.97;96.63;96134.22;1062195;27;20006;-48
2021/07/03 02:24:24;;;;;;;;;;;;;;;12.02;96.60;96132.56;1062248;27;19923;-48
2021/07/03 02:24:54;;;;;;;;;;;;;;;12.01;96.29;96128.34;1062429;27;19914;-51
2021/07/03 02:25:25;;;;;;;;;;;;;;;11.99;96.19;96132.19;1066708;27;20391;-51
2021/07/03 02:25:55;;;;;;;;;;;;;;;11.91;96.73;96130.53;1058577;28;19908;-50
2021/07/03 02:26:26;;;;;;;;;;;;;;;11.90;97.02;96134.16;1058533;28;19915;-50
2021/07/03 02:26:56;;;;;;;;;;;;;;;11.89;97.14;96129.94;1058468;28;19935;-49
2021/07/03 02:27:26;;;;;;;;;;;;;;;11.97;96.63;96127.09;1058285;27;19900;-49
2021/07/03 02:27:57;;;;;;;;;;;;;;;11.98;96.41;96131.38;1058542;28;19939;-52
2021/07/03 02:28:27;;;;;;;;;;;;;;;12.02;96.89;96126.50;1058519;28;19961;-49
2021/07/03 02:28:57;;;;;;;;;;;;;;;12.15;96.42;96130.97;1058463;28;19916;-51
2021/07/03 02:29:28;;;;;;;;;;;;;;;12.15;96.01;96125.69;1058724;27;19953;-49
2021/07/03 02:30:00;;;;;;;;;;;;;;;12.14;95.31;96126.69;1058382;28;19907;-51
2021/07/03 02:30:31;;;;;;;;;;;;;;;12.15;95.53;96131.78;1058561;28;20373;-47
2021/07/03 02:31:01;;;;;;;;;;;;;;;12.11;94.93;96129.75;1058335;28;19924;-48
2021/07/03 02:31:31;;;;;;;;;;;;;;;12.06;95.10;96125.88;1058384;28;19908;-51
2021/07/03 02:32:02;;;;;;;;;;;;;;;12.03;95.53;96134.22;1058323;28;19912;-47
2021/07/03 02:32:32;;;;;;;;;;;;;;;11.99;95.47;96132.97;1058293;28;19915;-48
2021/07/03 02:33:02;;;;;;;;;;;;;;;11.99;95.66;96137.47;1058359;27;20295;-49
2021/07/03 02:33:33;;;;;;;;;;;;;;;11.96;95.27;96143.16;1053764;28;20019;-47
2021/07/03 02:34:03;;;;;;;;;;;;;;;11.93;95.61;96133.78;1053726;28;19908;-48
2021/07/03 02:34:33;;;;;;;;;;;;;;;11.90;95.56;96139.44;1053612;28;19911;-50
2021/07/03 02:35:04;;;;;;;;;;;;;;;11.83;95.71;96131.53;1054059;28;19912;-48
2021/07/03 02:35:35;;;;;;;;;;;;;;;11.81;96.00;96144.13;1058548;28;19951;-46
2021/07/03 02:36:05;;;;;;;;;;;;;;;11.78;96.25;96139.28;1058457;27;19912;-47
2021/07/03 02:36:35;;;;;;;;;;;;;;;11.75;96.83;96137.00;1058757;28;20321;-48
2021/07/03 02:37:06;;;;;;;;;;;;;;;11.74;97.14;96138.84;1058489;28;19915;-48
2021/07/03 02:37:36;;;;;;;;;;;;;;;11.71;97.18;96141.88;1058448;28;19918;-48
2021/07/03 02:38:06;;;;;;;;;;;;;;;11.70;97.40;96137.63;1058543;28;20323;-53
2021/07/03 02:38:37;;;;;;;;;;;;;;;11.68;97.16;96136.22;1058859;28;19903;-52
2021/07/03 02:39:07;;;;;;;;;;;;;;;11.67;97.42;96142.47;1058595;28;20248;-50
2021/07/03 02:39:38;;;;;;;;;;;;;;;11.70;97.48;96134.16;1058918;28;19916;-50
2021/07/03 02:40:10;;;;;;;;;;;;;;;11.77;97.74;96140.28;1058601;28;19912;-53
2021/07/03 02:40:40;;;;;;;;;;;;;;;11.75;97.67;96142.28;1058547;28;19912;-50
2021/07/03 02:41:10;;;;;;;;;;;;;;;11.72;97.82;96143.50;1058525;28;20375;-51
2021/07/03 02:41:41;;;;;;;;;;;;;;;11.66;98.15;96133.78;1058685;28;20360;-49